Antimony, UT (84712)

6:18 AM MST on January 21, 2017 (GMT -0700)
Bryce Canyon | | Change Station
Active Advisory: Winter Storm Warning

Elev 7585 ft 37.71 °N, 112.15 °W | Updated 16 minutes ago

Overcast
Overcast
22 °F
Feels Like 22 °F
N
0
Wind Variable Wind from North

Today
High -- | Low -- °F
--% Chance of Precip.
Yesterday
High -- | Low -- °F
Precip. -- in
Pressure 29.30 in
Visibility 9.0 miles
Clouds Overcast 3600 ft
Dew Point 19 °F
Humidity 89%
Rainfall 0.06 in
Snow Depth Not available.
7:40 AM 5:39 PM
Waning Crescent, 35% visible
SPECI KBCE 211302Z AUTO 00000KT 9SM OVC036 M06/M07 A2930 RMK AO2 SNE00 P0000 T10561072 TSNO
Pressure 29.30 in
Visibility 9.0 miles
Clouds Overcast 3600 ft
Dew Point 19 °F
Humidity 89%
Rainfall 0.06 in
Snow Depth Not available.
7:40 AM 5:39 PM
Waning Crescent, 35% visible
SPECI KBCE 211302Z AUTO 00000KT 9SM OVC036 M06/M07 A2930 RMK AO2 SNE00 P0000 T10561072 TSNO

Get Your Daily Forecast Email!

Thanks for signing up!

Be on the lookout for a verification email in your inbox.

You'll start receiving the daily forecast at 8 AM.

×

10-Day Weather Forecast

Almanac

Astronomy

Jan. 21, 2017 Rise Set
Actual Time
Civil Twilight
Nautical Twilight
Astronomical Twilight
Moon
Length of Visible Light
Length of Day
Tomorrow will be .
, % of the Moon is Illuminated

Today's Extremes

State Highs State Lows

Community

WunderPhotos

Upload Photos

1,962,540 photos uploaded!

WunderBlog® & News

Nearby

Air Quality

  Air Quality AQ Index Pollutant
Not available.

Snow Depth

Station Depth Elevation

Earthquake Activity

City Distance Mag. Time & Date
Minimum magnitude displayed is 2.5.

Coastal Water Temperatures

Place Temperature

Stations

Nearby Weather Stations

Station Location Temp. Windchill Dew Point Humidity Wind Precip. Elev Updated Type
                   

Watches & Warnings

Winter Storm Warning
Issued: 2:41 AM MST Jan. 21, 2017 – National Weather Service

... Winter Storm Warning remains in effect until 8 PM MST this
evening...

* affected area... the southern mountains of Utah

* snow accumulations... an additional 3-7 inches in the
mountains... 1-3 inches mountain valleys.

* Timing... snow will remain heavy at times through this morning.
Snow will gradually taper off this afternoon... then end most
areas by late this evening.

* Impacts... winter weather conditions will exist on all mountain
roads within the southern Utah mountains. Significant travel
impacts are anticipated along all routes across the southern
mountains during this storm cycle.

Precautionary/preparedness actions...

A Winter Storm Warning for heavy snow means that significant
accumulations of snow are expected or occurring. Driving
conditions may be hazardous. Use caution. Keep a winter storm
survival kit in your vehicle in case of an emergency.

For winter Road conditions from the Utah Department of
Transportation... visit
http://www.Udottraffic.Utah.Gov/roadweatherforecast.Aspx or dial
511.